createdAt,value
2019-01-28T00:04:49.206Z,0.84
2019-01-28T00:10:06.792Z,0.91
2019-01-28T00:15:24.303Z,0.87
2019-01-28T00:20:41.792Z,0.95
2019-01-28T00:25:59.057Z,0.83
2019-01-28T00:31:17.329Z,0.90
2019-01-28T00:36:35.831Z,0.99
2019-01-28T00:41:53.139Z,1.02
2019-01-28T00:47:10.759Z,1.00
2019-01-28T00:52:28.185Z,0.94
2019-01-28T00:57:45.519Z,0.89
2019-01-28T01:03:03.199Z,0.87
2019-01-28T01:08:20.726Z,0.79
2019-01-28T01:13:38.141Z,0.66
2019-01-28T01:18:55.506Z,0.61
2019-01-28T01:24:13.285Z,0.56
2019-01-28T01:29:30.967Z,0.48
2019-01-28T01:34:49.359Z,0.36
2019-01-28T01:40:08.439Z,0.30
2019-01-28T01:45:25.748Z,0.19
2019-01-28T01:50:44.039Z,0.17
2019-01-28T01:56:01.830Z,0.12
2019-01-28T02:01:19.001Z,0.11
2019-01-28T02:06:36.608Z,0.12
2019-01-28T02:11:54.055Z,0.06
2019-01-28T02:17:11.292Z,0.05
2019-01-28T02:22:29.174Z,0.17
2019-01-28T02:27:46.467Z,0.17
2019-01-28T02:33:03.599Z,0.16
2019-01-28T02:38:21.126Z,0.20
2019-01-28T02:43:38.985Z,0.23
2019-01-28T02:48:56.097Z,0.22
2019-01-28T02:54:14.052Z,0.25
2019-01-28T02:59:31.670Z,0.33
2019-01-28T03:04:48.954Z,0.35
2019-01-28T03:10:07.663Z,0.37
2019-01-28T03:15:27.334Z,0.35
2019-01-28T03:20:44.875Z,0.32
2019-01-28T03:26:02.952Z,0.31
2019-01-28T03:31:20.925Z,0.30
2019-01-28T03:36:38.743Z,0.31
2019-01-28T03:41:56.333Z,0.29
2019-01-28T03:47:14.574Z,0.38
2019-01-28T03:52:32.605Z,0.43
2019-01-28T03:57:50.475Z,0.44
2019-01-28T04:03:08.629Z,0.45
2019-01-28T04:08:25.906Z,0.45
2019-01-28T04:13:51.466Z,0.54
2019-01-28T04:19:08.824Z,0.59
2019-01-28T04:24:26.456Z,0.70
2019-01-28T04:29:44.709Z,0.80
2019-01-28T04:35:02.472Z,0.84
2019-01-28T04:40:20.373Z,0.93
2019-01-28T04:45:38.809Z,0.92
2019-01-28T04:50:56.599Z,0.99
2019-01-28T04:56:13.830Z,1.16
2019-01-28T05:01:31.502Z,1.38
2019-01-28T05:06:48.949Z,1.41
2019-01-28T05:12:06.857Z,1.33
2019-01-28T05:17:24.373Z,1.44
2019-01-28T05:22:42.582Z,1.46
2019-01-28T05:28:00.186Z,1.45
2019-01-28T05:33:17.800Z,1.53
2019-01-28T05:38:35.706Z,1.60
2019-01-28T05:43:55.628Z,1.60
2019-01-28T05:49:13.212Z,1.55
2019-01-28T05:54:31.330Z,1.44
2019-01-28T05:59:49.072Z,1.48
2019-01-28T06:05:06.749Z,1.48
2019-01-28T06:10:24.439Z,1.46
2019-01-28T06:15:42.285Z,1.43
2019-01-28T06:20:59.865Z,1.47
2019-01-28T06:26:17.811Z,1.32
2019-01-28T06:31:35.553Z,1.40
2019-01-28T06:36:52.895Z,1.35
2019-01-28T06:42:10.334Z,1.27
2019-01-28T06:47:27.485Z,1.29
2019-01-28T06:52:45.334Z,1.32
2019-01-28T06:58:02.954Z,1.33
2019-01-28T07:03:20.446Z,1.26
2019-01-28T07:08:38.448Z,1.35
2019-01-28T07:13:56.741Z,1.38
2019-01-28T07:19:13.811Z,1.46
2019-01-28T07:24:31.031Z,1.45
2019-01-28T07:29:48.159Z,1.61
2019-01-28T07:35:06.172Z,1.62
2019-01-28T07:40:23.903Z,1.65
2019-01-28T07:45:45.565Z,1.66
2019-01-28T07:51:00.007Z,1.74
2019-01-28T07:56:17.113Z,1.71
2019-01-28T08:01:41.715Z,1.74
2019-01-28T08:06:59.774Z,1.83
2019-01-28T08:12:17.391Z,1.90
2019-01-28T08:17:34.884Z,1.82
2019-01-28T08:22:52.405Z,1.91
2019-01-28T08:28:09.674Z,1.90
2019-01-28T08:33:27.392Z,2.04
2019-01-28T08:38:45.544Z,2.13
2019-01-28T08:44:03.345Z,2.26
2019-01-28T08:49:20.748Z,2.15
2019-01-28T08:54:38.777Z,2.02
2019-01-28T08:59:56.827Z,2.23
2019-01-28T09:05:14.006Z,2.27
2019-01-28T09:10:33.757Z,2.46
2019-01-28T09:15:51.797Z,2.61
2019-01-28T09:21:09.214Z,2.78
2019-01-28T09:26:26.846Z,2.76
2019-01-28T09:31:44.397Z,2.95
2019-01-28T09:37:01.765Z,2.93
2019-01-28T09:42:20.297Z,3.13
2019-01-28T09:47:38.195Z,3.04
2019-01-28T09:52:55.915Z,3.10
2019-01-28T09:58:13.853Z,3.14
2019-01-28T10:03:31.417Z,3.32
2019-01-28T10:08:49.022Z,3.27
2019-01-28T10:14:06.692Z,3.50
2019-01-28T10:19:24.270Z,3.65
2019-01-28T10:24:41.897Z,3.69
2019-01-28T10:29:59.447Z,3.74
2019-01-28T10:35:17.137Z,3.79
2019-01-28T10:40:34.886Z,3.85
2019-01-28T10:45:52.489Z,3.98
2019-01-28T10:51:10.158Z,4.03
2019-01-28T10:56:27.967Z,4.12
2019-01-28T11:01:45.363Z,4.37
2019-01-28T11:07:03.223Z,4.08
2019-01-28T11:12:20.640Z,4.40
2019-01-28T11:17:38.922Z,4.55
2019-01-28T11:22:56.407Z,4.73
2019-01-28T11:28:13.952Z,5.28
2019-01-28T11:33:31.074Z,5.48
2019-01-28T11:38:48.570Z,6.54
2019-01-28T11:44:06.134Z,6.37
2019-01-28T11:49:24.716Z,5.99
2019-01-28T11:54:41.941Z,6.16
2019-01-28T11:59:59.167Z,5.70
2019-01-28T12:05:17.221Z,5.80
2019-01-28T12:10:34.953Z,5.59
2019-01-28T12:15:53.051Z,5.45
2019-01-28T12:21:11.118Z,5.40
2019-01-28T12:26:29.318Z,5.28
2019-01-28T12:31:47.397Z,4.89
2019-01-28T12:37:04.607Z,4.84
2019-01-28T12:42:22.143Z,4.90
2019-01-28T12:47:39.757Z,5.05
2019-01-28T12:52:57.604Z,4.95
2019-01-28T12:58:15.694Z,5.16
2019-01-28T13:03:32.989Z,5.38
2019-01-28T13:08:50.973Z,5.75
2019-01-28T13:14:08.225Z,5.85
2019-01-28T13:19:30.273Z,5.95
2019-01-28T13:24:45.379Z,5.65
2019-01-28T13:30:02.767Z,5.19
2019-01-28T13:35:21.233Z,4.91
2019-01-28T13:40:39.181Z,4.68
2019-01-28T13:45:58.095Z,4.66
2019-01-28T13:51:15.968Z,4.80
2019-01-28T13:56:33.365Z,4.90
2019-01-28T14:01:50.855Z,4.97
2019-01-28T14:07:08.585Z,4.73
2019-01-28T14:12:25.831Z,4.68
2019-01-28T14:17:43.149Z,4.20
2019-01-28T14:23:00.776Z,4.21
2019-01-28T14:28:19.339Z,4.20
2019-01-28T14:33:37.453Z,3.88
2019-01-28T14:38:54.580Z,3.87
2019-01-28T14:44:13.490Z,3.91
2019-01-28T14:49:32.347Z,3.79
2019-01-28T14:54:47.238Z,3.69
2019-01-28T15:00:05.163Z,3.69
2019-01-28T15:05:22.348Z,3.64
2019-01-28T15:10:40.119Z,3.69
2019-01-28T15:15:58.100Z,3.62
2019-01-28T15:21:15.905Z,3.08
2019-01-28T15:26:33.770Z,3.24
2019-01-28T15:31:51.192Z,3.26
2019-01-28T15:37:09.086Z,3.20
2019-01-28T15:42:26.535Z,2.79
2019-01-28T15:47:44.055Z,2.82
2019-01-28T15:53:02.067Z,2.79
2019-01-28T15:58:20.129Z,2.87
2019-01-28T16:03:37.881Z,2.87
2019-01-28T16:08:56.605Z,2.92
2019-01-28T16:14:14.974Z,2.75
2019-01-28T16:19:32.926Z,2.50
2019-01-28T16:24:50.418Z,2.72
2019-01-28T16:30:10.666Z,2.78
2019-01-28T16:35:27.967Z,2.68
2019-01-28T16:40:46.106Z,2.73
2019-01-28T16:46:03.295Z,2.69
2019-01-28T16:51:20.684Z,2.69
2019-01-28T16:56:39.715Z,2.67
2019-01-28T17:01:57.254Z,2.68
2019-01-28T17:07:15.173Z,2.64
2019-01-28T17:12:33.687Z,2.55
2019-01-28T17:17:53.153Z,2.44
2019-01-28T17:23:11.893Z,2.49
2019-01-28T17:28:29.637Z,2.34
2019-01-28T17:33:47.648Z,2.19
2019-01-28T17:39:06.705Z,2.03
2019-01-28T17:44:24.972Z,1.89
2019-01-28T17:49:43.987Z,1.85
2019-01-28T17:55:02.685Z,1.73
2019-01-28T18:00:29.721Z,1.69
2019-01-28T18:05:46.406Z,1.56
2019-01-28T18:11:05.527Z,1.39
2019-01-28T18:16:25.032Z,1.26
2019-01-28T18:21:42.769Z,1.31
2019-01-28T18:27:00.331Z,1.60
2019-01-28T18:32:18.625Z,1.35
2019-01-28T18:37:35.978Z,1.64
2019-01-28T18:42:53.843Z,1.60
2019-01-28T18:48:12.491Z,1.44
2019-01-28T18:53:33.326Z,1.67
2019-01-28T18:58:53.073Z,1.75
2019-01-28T19:04:10.918Z,1.60
2019-01-28T19:09:52.691Z,1.50
2019-01-28T19:15:21.272Z,1.42
2019-01-28T19:21:07.864Z,1.49
2019-01-28T19:26:19.668Z,1.59
2019-01-28T19:31:37.932Z,1.84
2019-01-28T19:36:56.193Z,1.91
2019-01-28T19:42:14.700Z,1.85
2019-01-28T19:47:34.056Z,1.94
2019-01-28T19:52:53.579Z,1.85
2019-01-28T19:58:14.206Z,1.92
2019-01-28T20:03:34.122Z,1.93
2019-01-28T20:08:53.592Z,1.87
2019-01-28T20:14:11.596Z,1.81
2019-01-28T20:19:31.789Z,1.96
2019-01-28T20:24:49.618Z,1.74
2019-01-28T20:30:08.935Z,1.86
2019-01-28T20:35:26.345Z,1.99
2019-01-28T20:40:44.788Z,2.09
2019-01-28T20:46:03.638Z,2.18
2019-01-28T20:51:21.989Z,2.27
2019-01-28T20:56:39.689Z,2.48
2019-01-28T21:01:57.460Z,2.50
2019-01-28T21:07:15.109Z,2.51
2019-01-28T21:12:33.407Z,2.46
2019-01-28T21:17:51.485Z,2.42
2019-01-28T21:23:09.600Z,2.26
2019-01-28T21:28:30.323Z,2.38
2019-01-28T21:33:50.683Z,2.28
2019-01-28T21:39:09.640Z,2.17
2019-01-28T21:44:27.607Z,2.26
2019-01-28T21:49:46.039Z,2.26
2019-01-28T21:55:04.208Z,2.39
2019-01-28T22:00:22.934Z,2.41
2019-01-28T22:05:40.279Z,2.58
2019-01-28T22:10:58.498Z,2.60
2019-01-28T22:16:16.137Z,2.67
2019-01-28T22:21:33.606Z,2.77
2019-01-28T22:26:52.427Z,2.78
2019-01-28T22:32:11.548Z,2.82
2019-01-28T22:37:29.639Z,2.85
2019-01-28T22:42:47.484Z,2.81
2019-01-28T22:48:05.232Z,2.81
2019-01-28T22:53:23.365Z,2.79
2019-01-28T22:58:41.510Z,2.80
2019-01-28T23:03:59.483Z,2.81
2019-01-28T23:09:17.925Z,2.87
2019-01-28T23:14:35.127Z,2.80
2019-01-28T23:19:52.780Z,2.91
2019-01-28T23:25:10.127Z,2.86
2019-01-28T23:30:27.345Z,2.89
2019-01-28T23:35:45.209Z,2.87
2019-01-28T23:41:02.951Z,2.94
2019-01-28T23:46:20.186Z,2.88
2019-01-28T23:51:37.718Z,2.87
2019-01-28T23:56:56.469Z,2.86
